Time;durP1;ratioP1;P1;durP2;ratioP2;P2;SDS_P1;SDS_P2;PMS_P1;PMS_P2;Temp;Humidity;BMP_temperature;BMP_pressure;BME280_temperature;BME280_humidity;BME280_pressure;Samples;Min_cycle;Max_cycle;Signal;HPM_P1;HPM_P2
2023/05/12 00:00:03;;;;;;;0.10;0.10;;;10.20;99.90;;;;;;5052287;28;20090;-79
2023/05/12 00:02:30;;;;;;;0.30;0.30;;;10.20;99.90;;;;;;5055188;28;20044;-80
2023/05/12 00:04:55;;;;;;;0.10;0.10;;;10.10;99.90;;;;;;5059411;28;20131;-79
2023/05/12 00:07:21;;;;;;;0.10;0.10;;;10.10;99.90;;;;;;5048181;28;20036;-80
2023/05/12 00:09:47;;;;;;;2.90;0.50;;;10.10;99.90;;;;;;5058082;28;20075;-80
2023/05/12 00:12:13;;;;;;;0.10;0.10;;;10.00;99.90;;;;;;5057416;28;20488;-80
2023/05/12 00:14:39;;;;;;;0.30;0.30;;;9.90;99.90;;;;;;5057437;28;20021;-80
2023/05/12 00:17:05;;;;;;;0.20;0.20;;;9.90;99.90;;;;;;5060225;28;20437;-79
2023/05/12 00:19:35;;;;;;;0.10;0.10;;;9.80;99.90;;;;;;5060037;28;20147;-79
2023/05/12 00:22:01;;;;;;;0.10;0.10;;;9.80;99.90;;;;;;5055180;28;20120;-79
2023/05/12 00:24:27;;;;;;;0.55;0.55;;;10.10;99.90;;;;;;5054730;28;20021;-78
2023/05/12 00:26:53;;;;;;;0.20;0.20;;;10.00;99.90;;;;;;5054257;28;20024;-80
2023/05/12 00:29:19;;;;;;;0.10;0.10;;;9.90;99.90;;;;;;5057571;28;20067;-80
2023/05/12 00:31:44;;;;;;;0.00;0.00;;;10.00;99.90;;;;;;5055929;28;20099;-79
2023/05/12 00:34:10;;;;;;;0.20;0.20;;;10.00;99.90;;;;;;5055289;28;20029;-79
2023/05/12 00:36:36;;;;;;;0.20;0.20;;;10.00;99.90;;;;;;5058543;28;20028;-80
2023/05/12 00:39:02;;;;;;;0.20;0.20;;;10.10;99.90;;;;;;5058607;28;20679;-80
2023/05/12 00:41:28;;;;;;;0.20;0.20;;;10.30;99.90;;;;;;5065728;28;20028;-79
2023/05/12 00:43:53;;;;;;;0.10;0.10;;;10.30;99.90;;;;;;5057188;28;20426;-80
2023/05/12 00:46:20;;;;;;;0.08;0.08;;;10.40;99.90;;;;;;5055348;28;20029;-80
2023/05/12 00:48:47;;;;;;;0.20;0.20;;;10.30;99.90;;;;;;5055497;28;20408;-79
2023/05/12 00:51:14;;;;;;;0.20;0.20;;;10.30;99.90;;;;;;5063821;28;20048;-79
2023/05/12 00:53:41;;;;;;;0.20;0.20;;;10.30;99.90;;;;;;5058610;28;20085;-79
2023/05/12 00:56:07;;;;;;;0.10;0.10;;;10.20;99.90;;;;;;5053956;28;20128;-79
2023/05/12 00:58:33;;;;;;;0.10;0.10;;;10.20;99.90;;;;;;5057883;28;20094;-80
2023/05/12 01:00:59;;;;;;;0.45;0.30;;;10.20;99.90;;;;;;5057694;28;20032;-80
2023/05/12 01:03:25;;;;;;;0.03;0.03;;;10.30;99.90;;;;;;5065252;28;20025;-80
2023/05/12 01:06:14;;;;;;;0.93;0.75;;;10.30;99.90;;;;;;5062837;28;20024;-81
2023/05/12 01:08:41;;;;;;;0.22;0.22;;;10.20;99.90;;;;;;5058110;28;20033;-81
2023/05/12 01:11:06;;;;;;;0.20;0.20;;;10.30;99.90;;;;;;5062886;28;20672;-82
2023/05/12 01:13:32;;;;;;;0.00;0.00;;;10.30;99.90;;;;;;5058723;28;20107;-81
2023/05/12 01:16:01;;;;;;;0.10;0.10;;;10.30;99.90;;;;;;5065989;28;20033;-81
2023/05/12 01:18:28;;;;;;;0.10;0.10;;;10.20;99.90;;;;;;5057706;28;20041;-81
2023/05/12 01:20:55;;;;;;;0.10;0.10;;;10.30;99.90;;;;;;5064540;28;20487;-82
2023/05/12 01:23:26;;;;;;;0.10;0.10;;;10.30;99.90;;;;;;5056582;28;20040;-81
2023/05/12 01:25:53;;;;;;;0.30;0.30;;;10.30;99.90;;;;;;5059943;28;20025;-81
2023/05/12 01:28:20;;;;;;;0.10;0.10;;;10.30;99.90;;;;;;5061313;28;20072;-80
2023/05/12 01:30:47;;;;;;;0.10;0.10;;;10.40;99.90;;;;;;5063303;28;20025;-80
2023/05/12 01:33:13;;;;;;;0.35;0.35;;;10.30;99.90;;;;;;5054914;28;20028;-80
2023/05/12 01:35:39;;;;;;;0.10;0.10;;;10.20;99.90;;;;;;5055879;28;20029;-81
2023/05/12 01:38:04;;;;;;;0.22;0.22;;;10.30;99.90;;;;;;5053600;28;20062;-81
2023/05/12 01:40:30;;;;;;;0.10;0.10;;;10.30;99.90;;;;;;5063514;28;20100;-79
2023/05/12 01:42:56;;;;;;;0.10;0.10;;;10.00;99.90;;;;;;5058417;28;20020;-80
2023/05/12 01:45:21;;;;;;;0.20;0.20;;;10.00;99.90;;;;;;5053622;28;20044;-82
2023/05/12 01:47:47;;;;;;;0.10;0.10;;;10.00;99.90;;;;;;5062828;28;20642;-81
2023/05/12 01:50:13;;;;;;;0.30;0.30;;;10.00;99.90;;;;;;5059430;28;20575;-83
2023/05/12 01:52:38;;;;;;;1.88;0.63;;;10.00;99.90;;;;;;5064064;28;20024;-82
2023/05/12 01:55:04;;;;;;;0.10;0.10;;;10.00;99.90;;;;;;5060370;28;20381;-81
2023/05/12 01:57:30;;;;;;;0.10;0.10;;;10.10;99.90;;;;;;5060008;28;20693;-83
2023/05/12 01:59:56;;;;;;;0.10;0.10;;;10.10;99.90;;;;;;5063963;28;20044;-82
2023/05/12 02:02:22;;;;;;;0.00;0.00;;;10.20;99.90;;;;;;5058916;28;20039;-81
2023/05/12 02:04:48;;;;;;;;;;;10.20;99.90;;;;;;5063362;28;20060;-82
2023/05/12 02:07:14;;;;;;;0.13;0.13;;;10.10;99.90;;;;;;5041865;28;19912;-82
2023/05/12 02:09:40;;;;;;;0.10;0.10;;;10.10;99.90;;;;;;5046479;28;20766;-82
2023/05/12 02:12:06;;;;;;;0.52;0.52;;;10.00;99.90;;;;;;5061128;28;20032;-83
2023/05/12 02:14:32;;;;;;;0.10;0.10;;;10.00;99.90;;;;;;5064390;28;20021;-83
2023/05/12 02:16:58;;;;;;;0.10;0.10;;;10.00;99.90;;;;;;5059075;28;20049;-84
2023/05/12 02:19:24;;;;;;;0.30;0.30;;;10.00;99.90;;;;;;5060330;28;20044;-80
2023/05/12 02:21:50;;;;;;;0.40;0.40;;;10.10;99.90;;;;;;5059948;28;20020;-81
2023/05/12 02:24:15;;;;;;;0.10;0.10;;;10.10;99.90;;;;;;5052188;28;20104;-80
2023/05/12 02:26:41;;;;;;;0.10;0.10;;;10.10;99.90;;;;;;5057802;28;20028;-82
2023/05/12 02:29:07;;;;;;;0.30;0.30;;;10.00;99.90;;;;;;5055195;28;20032;-83
2023/05/12 02:31:33;;;;;;;0.00;0.00;;;9.90;99.90;;;;;;5058123;28;20025;-81
2023/05/12 02:34:00;;;;;;;0.03;0.03;;;10.00;99.90;;;;;;5062662;28;20492;-80
2023/05/12 02:36:25;;;;;;;0.10;0.10;;;10.00;99.90;;;;;;5053057;28;20059;-80
2023/05/12 02:38:51;;;;;;;0.10;0.10;;;10.00;99.90;;;;;;5056737;28;20143;-80
2023/05/12 02:41:17;;;;;;;0.10;0.10;;;10.00;99.90;;;;;;5051485;28;20802;-80
2023/05/12 02:43:43;;;;;;;0.10;0.10;;;9.90;99.90;;;;;;5053144;28;20059;-80
2023/05/12 02:46:08;;;;;;;0.20;0.20;;;10.00;99.90;;;;;;5054383;28;20472;-80
2023/05/12 02:48:34;;;;;;;0.10;0.10;;;10.10;99.90;;;;;;5055489;28;20497;-80
2023/05/12 02:51:00;;;;;;;0.20;0.20;;;10.10;99.90;;;;;;5060592;28;20048;-80
2023/05/12 02:53:26;;;;;;;0.10;0.10;;;10.00;99.90;;;;;;5061494;28;20029;-79
2023/05/12 02:55:52;;;;;;;0.10;0.10;;;10.00;99.90;;;;;;5052117;28;20712;-79
2023/05/12 02:58:18;;;;;;;0.10;0.10;;;10.00;99.90;;;;;;5061698;28;20083;-79
2023/05/12 03:00:43;;;;;;;0.43;0.43;;;9.90;99.90;;;;;;5055052;28;20464;-79
2023/05/12 03:03:09;;;;;;;0.55;0.45;;;9.80;99.90;;;;;;5052445;28;20103;-78
2023/05/12 03:05:35;;;;;;;0.10;0.10;;;9.80;99.90;;;;;;5061456;28;20484;-78
2023/05/12 03:08:01;;;;;;;0.10;0.10;;;9.70;99.90;;;;;;5050572;28;20098;-79
2023/05/12 03:10:26;;;;;;;0.30;0.30;;;9.60;99.90;;;;;;5060073;28;20655;-79
2023/05/12 03:12:52;;;;;;;0.10;0.10;;;9.60;99.90;;;;;;5060260;28;20020;-80
2023/05/12 03:15:18;;;;;;;0.75;0.75;;;9.80;99.90;;;;;;5058531;28;20029;-80
2023/05/12 03:17:43;;;;;;;1.13;1.10;;;9.70;99.90;;;;;;5054014;28;20041;-79
2023/05/12 03:20:09;;;;;;;0.10;0.10;;;9.70;99.90;;;;;;5054449;28;20048;-79
2023/05/12 03:22:35;;;;;;;0.10;0.10;;;9.80;99.90;;;;;;5060791;28;20653;-79
2023/05/12 03:25:02;;;;;;;0.10;0.10;;;9.80;99.90;;;;;;5058919;28;20028;-79
2023/05/12 03:27:29;;;;;;;0.40;0.40;;;9.80;99.90;;;;;;5057043;28;20913;-79
2023/05/12 03:29:54;;;;;;;0.23;0.23;;;9.80;99.90;;;;;;5059215;28;20103;-80
2023/05/12 03:32:20;;;;;;;0.30;0.30;;;9.80;99.90;;;;;;5059813;28;20267;-78
2023/05/12 03:34:46;;;;;;;0.63;0.63;;;9.80;99.90;;;;;;5055065;28;20743;-78
2023/05/12 03:37:11;;;;;;;0.25;0.25;;;9.90;99.90;;;;;;5052444;28;20142;-78
2023/05/12 03:39:37;;;;;;;0.10;0.10;;;9.90;99.90;;;;;;5061695;28;20040;-78
2023/05/12 03:42:03;;;;;;;0.57;0.57;;;10.00;99.90;;;;;;5056085;28;20043;-80
2023/05/12 03:44:29;;;;;;;1.65;0.93;;;10.00;99.90;;;;;;5057289;28;20632;-80
2023/05/12 03:46:54;;;;;;;6.68;0.47;;;9.90;99.90;;;;;;5058531;28;20050;-80
2023/05/12 03:49:20;;;;;;;0.22;0.22;;;9.90;99.90;;;;;;5050583;28;20029;-80
2023/05/12 03:51:46;;;;;;;0.08;0.08;;;9.90;99.90;;;;;;5057583;28;20027;-80
2023/05/12 03:54:11;;;;;;;0.30;0.30;;;9.90;99.90;;;;;;5055256;28;20495;-80
2023/05/12 03:56:37;;;;;;;0.10;0.10;;;10.00;99.90;;;;;;5055707;28;20071;-79
2023/05/12 03:59:03;;;;;;;0.20;0.20;;;9.90;99.90;;;;;;5055025;28;20131;-80
2023/05/12 04:01:29;;;;;;;0.20;0.20;;;9.90;99.90;;;;;;5053342;28;20805;-79
2023/05/12 04:03:54;;;;;;;0.25;0.25;;;9.90;99.90;;;;;;5057830;28;20021;-80
2023/05/12 04:06:20;;;;;;;0.10;0.10;;;10.00;99.90;;;;;;5058600;28;20495;-80
2023/05/12 04:08:46;;;;;;;0.10;0.10;;;9.90;99.90;;;;;;5050275;28;21169;-79
2023/05/12 04:11:12;;;;;;;0.30;0.30;;;9.80;99.90;;;;;;5060649;28;20052;-79
2023/05/12 04:13:38;;;;;;;0.10;0.10;;;9.90;99.90;;;;;;5059889;28;20626;-78
2023/05/12 04:16:04;;;;;;;0.10;0.10;;;9.90;99.90;;;;;;5060414;28;20157;-82
2023/05/12 04:18:30;;;;;;;0.10;0.10;;;9.90;99.90;;;;;;5032503;28;20805;-81
2023/05/12 04:20:56;;;;;;;0.10;0.10;;;9.90;99.90;;;;;;5058932;28;20031;-80
2023/05/12 04:23:22;;;;;;;0.52;0.52;;;10.00;99.90;;;;;;5058298;28;20028;-80
2023/05/12 04:25:47;;;;;;;0.75;0.35;;;10.00;99.90;;;;;;5059433;28;20052;-79
2023/05/12 04:28:13;;;;;;;0.10;0.10;;;9.90;99.90;;;;;;5049266;28;20112;-79
2023/05/12 04:30:40;;;;;;;0.75;0.75;;;9.80;99.90;;;;;;5060899;28;20067;-80
2023/05/12 04:33:06;;;;;;;0.35;0.35;;;9.70;99.90;;;;;;5045323;28;20647;-81
2023/05/12 04:35:32;;;;;;;0.10;0.10;;;9.70;99.90;;;;;;5052233;28;20099;-81
2023/05/12 04:38:00;;;;;;;0.32;0.20;;;9.60;99.90;;;;;;5046649;28;20083;-80
2023/05/12 04:40:26;;;;;;;0.30;0.30;;;9.50;99.90;;;;;;5045554;28;20028;-80
2023/05/12 04:42:51;;;;;;;0.10;0.10;;;9.70;99.90;;;;;;5049938;28;20462;-80
2023/05/12 04:45:17;;;;;;;0.20;0.20;;;9.80;99.90;;;;;;5052837;28;20108;-80
2023/05/12 04:47:43;;;;;;;0.50;0.43;;;9.90;99.90;;;;;;5043735;28;20048;-80
2023/05/12 04:50:10;;;;;;;0.30;0.30;;;10.00;99.90;;;;;;5048660;28;20523;-80
2023/05/12 04:52:36;;;;;;;0.10;0.10;;;10.00;99.90;;;;;;5045815;28;20854;-80
2023/05/12 04:55:02;;;;;;;0.38;0.38;;;10.10;99.90;;;;;;5051473;28;20504;-80
2023/05/12 04:57:28;;;;;;;0.40;0.40;;;10.20;99.90;;;;;;5043680;28;20108;-78
2023/05/12 04:59:54;;;;;;;0.63;0.63;;;10.20;99.90;;;;;;5049256;28;20040;-77
2023/05/12 05:02:20;;;;;;;0.52;0.52;;;10.10;99.90;;;;;;5047779;28;20534;-78
2023/05/12 05:04:45;;;;;;;0.20;0.20;;;10.30;99.90;;;;;;5060243;28;20033;-78
2023/05/12 05:07:11;;;;;;;0.08;0.08;;;10.20;99.90;;;;;;5041385;28;20119;-78
2023/05/12 05:09:37;;;;;;;0.10;0.10;;;10.20;99.90;;;;;;5053676;28;20059;-79
2023/05/12 05:12:03;;;;;;;0.22;0.22;;;10.30;99.90;;;;;;5053573;28;20107;-80
2023/05/12 05:14:28;;;;;;;0.10;0.10;;;10.30;99.90;;;;;;5052075;28;20033;-80
2023/05/12 05:16:54;;;;;;;0.35;0.35;;;10.20;99.90;;;;;;5050467;28;20496;-79
2023/05/12 05:19:20;;;;;;;0.70;0.70;;;10.30;99.90;;;;;;5047412;28;20037;-79
2023/05/12 05:21:45;;;;;;;0.55;0.30;;;10.40;99.90;;;;;;5051136;28;20543;-79
2023/05/12 05:24:11;;;;;;;0.65;0.65;;;10.40;99.90;;;;;;5058181;28;20041;-81
2023/05/12 05:26:37;;;;;;;0.40;0.40;;;10.40;99.90;;;;;;5061066;28;20801;-81
2023/05/12 05:29:03;;;;;;;0.30;0.30;;;10.50;99.90;;;;;;5052038;28;20593;-82
2023/05/12 05:31:29;;;;;;;;;;;10.60;99.90;;;;;;5054757;28;20040;-81
2023/05/12 05:33:55;;;;;;;0.00;0.00;;;10.50;99.90;;;;;;5064357;28;19916;-82
2023/05/12 05:36:26;;;;;;;0.10;0.10;;;10.60;99.90;;;;;;5057336;28;20025;-81
2023/05/12 05:38:52;;;;;;;0.47;0.47;;;10.70;99.90;;;;;;5059280;28;20148;-81
2023/05/12 05:41:18;;;;;;;0.20;0.20;;;10.60;99.90;;;;;;5064739;28;20103;-80
2023/05/12 05:43:44;;;;;;;0.10;0.10;;;10.60;99.90;;;;;;5055774;28;20033;-81
2023/05/12 05:46:10;;;;;;;0.20;0.20;;;10.80;99.90;;;;;;5053869;28;20028;-81
2023/05/12 05:48:35;;;;;;;0.32;0.32;;;10.80;99.90;;;;;;5062930;28;20105;-82
2023/05/12 05:51:01;;;;;;;3.45;0.57;;;10.90;99.90;;;;;;5057868;28;20045;-81
2023/05/12 05:53:27;;;;;;;0.00;0.00;;;11.00;99.90;;;;;;5056004;28;20044;-82
2023/05/12 05:55:53;;;;;;;0.40;0.40;;;11.00;99.90;;;;;;5058982;28;20028;-81
2023/05/12 05:58:18;;;;;;;0.22;0.22;;;11.10;99.90;;;;;;5046436;28;20037;-81
2023/05/12 06:00:44;;;;;;;0.10;0.10;;;11.30;99.90;;;;;;5054435;28;20029;-82
2023/05/12 06:03:10;;;;;;;0.10;0.10;;;11.40;99.90;;;;;;5060110;28;20033;-83
2023/05/12 06:05:37;;;;;;;0.35;0.28;;;11.20;99.90;;;;;;5064325;28;20016;-80
2023/05/12 06:08:04;;;;;;;0.22;0.22;;;11.00;99.90;;;;;;5048077;28;20033;-81
2023/05/12 06:10:29;;;;;;;0.60;0.60;;;11.00;99.90;;;;;;5057572;28;20061;-82
2023/05/12 06:12:55;;;;;;;0.15;0.15;;;11.00;99.90;;;;;;5057723;28;20107;-83
2023/05/12 06:15:21;;;;;;;0.20;0.20;;;11.10;99.90;;;;;;5056927;28;20104;-80
2023/05/12 06:17:47;;;;;;;0.10;0.10;;;11.00;99.90;;;;;;5034529;28;20029;-82
2023/05/12 06:20:13;;;;;;;0.15;0.15;;;11.10;99.90;;;;;;5053939;28;20025;-80
2023/05/12 06:22:41;;;;;;;0.17;0.17;;;11.20;99.90;;;;;;5050575;28;20028;-80
2023/05/12 06:25:07;;;;;;;0.10;0.10;;;11.30;99.90;;;;;;5054433;28;20515;-80
2023/05/12 06:27:33;;;;;;;0.10;0.10;;;11.50;99.90;;;;;;5055799;28;20586;-80
2023/05/12 06:29:59;;;;;;;0.10;0.10;;;11.70;99.90;;;;;;5061442;28;20098;-80
2023/05/12 06:32:25;;;;;;;0.52;0.52;;;11.70;99.90;;;;;;5047989;28;20025;-80
2023/05/12 06:34:50;;;;;;;0.00;0.00;;;11.70;99.90;;;;;;5062920;28;20032;-80
2023/05/12 06:37:16;;;;;;;0.63;0.63;;;11.70;99.90;;;;;;5057010;28;20084;-80
2023/05/12 06:39:42;;;;;;;0.10;0.10;;;11.80;99.90;;;;;;5053531;28;20080;-80
2023/05/12 06:42:07;;;;;;;0.00;0.00;;;11.70;99.90;;;;;;5035492;28;20028;-80
2023/05/12 06:44:33;;;;;;;0.37;0.37;;;11.80;99.90;;;;;;5049497;28;20063;-79
2023/05/12 06:46:59;;;;;;;0.10;0.10;;;11.60;99.90;;;;;;5046978;28;20678;-80
2023/05/12 06:49:24;;;;;;;0.05;0.05;;;11.40;99.90;;;;;;5052328;28;20123;-80
2023/05/12 06:51:50;;;;;;;0.05;0.05;;;11.50;99.90;;;;;;5050030;28;20453;-79
2023/05/12 06:54:16;;;;;;;0.10;0.10;;;11.30;99.90;;;;;;5049392;28;20074;-80
2023/05/12 06:56:41;;;;;;;0.22;0.22;;;11.40;99.90;;;;;;5052358;28;20029;-80
2023/05/12 06:59:07;;;;;;;0.08;0.08;;;11.40;99.90;;;;;;5060662;28;20499;-80
2023/05/12 07:01:33;;;;;;;0.52;0.52;;;11.40;99.90;;;;;;5037027;28;20115;-80
2023/05/12 07:03:59;;;;;;;0.10;0.10;;;11.40;99.90;;;;;;5056424;28;20627;-81
2023/05/12 07:06:28;;;;;;;0.00;0.00;;;11.40;99.90;;;;;;5053907;28;20108;-79
2023/05/12 07:08:54;;;;;;;0.00;0.00;;;11.40;99.90;;;;;;5056296;28;20059;-80
2023/05/12 07:11:21;;;;;;;0.88;0.38;;;11.40;99.90;;;;;;5063238;28;20094;-80
2023/05/12 07:13:47;;;;;;;0.10;0.10;;;11.60;99.90;;;;;;5054619;28;20033;-79
2023/05/12 07:16:14;;;;;;;0.40;0.40;;;11.60;99.90;;;;;;5056736;28;20268;-80
2023/05/12 07:18:40;;;;;;;0.20;0.20;;;11.70;99.90;;;;;;5052870;28;20044;-80
2023/05/12 07:21:06;;;;;;;0.27;0.27;;;11.70;99.90;;;;;;5061263;28;20020;-80
2023/05/12 07:23:33;;;;;;;0.10;0.10;;;11.70;99.90;;;;;;5044260;28;20033;-80
2023/05/12 07:25:59;;;;;;;;;;;11.80;99.90;;;;;;5061736;28;20027;-80
2023/05/12 07:28:24;;;;;;;0.40;0.25;;;11.70;99.90;;;;;;5060144;28;19908;-80
2023/05/12 07:30:50;;;;;;;0.10;0.10;;;11.70;99.90;;;;;;5062506;28;20035;-79
2023/05/12 07:33:16;;;;;;;0.10;0.10;;;11.70;99.90;;;;;;5062804;28;20082;-80
2023/05/12 07:35:41;;;;;;;0.40;0.40;;;11.60;99.90;;;;;;5062862;28;20021;-80
2023/05/12 07:38:08;;;;;;;0.13;0.13;;;11.70;99.90;;;;;;5045121;28;20135;-80
2023/05/12 07:40:34;;;;;;;0.00;0.00;;;11.70;99.90;;;;;;5062454;28;20036;-80
2023/05/12 07:43:00;;;;;;;0.00;0.00;;;11.90;99.90;;;;;;5048734;28;20040;-80
2023/05/12 07:45:25;;;;;;;0.20;0.20;;;12.00;99.90;;;;;;5062033;28;20103;-79
2023/05/12 07:47:51;;;;;;;0.00;0.00;;;12.10;99.90;;;;;;5062185;28;20142;-80
2023/05/12 07:50:17;;;;;;;0.10;0.10;;;12.40;99.60;;;;;;5061631;28;20052;-80
2023/05/12 07:52:48;;;;;;;0.10;0.10;;;12.40;99.90;;;;;;5059646;28;20872;-80
2023/05/12 07:55:14;;;;;;;0.10;0.10;;;12.60;99.60;;;;;;5057829;28;20044;-80
2023/05/12 07:57:40;;;;;;;0.30;0.30;;;12.60;99.40;;;;;;5062118;28;20029;-80
2023/05/12 08:00:07;;;;;;;0.00;0.00;;;12.80;99.20;;;;;;5058239;28;20078;-80
2023/05/12 08:02:32;;;;;;;0.00;0.00;;;12.90;98.10;;;;;;5058538;28;20028;-80
2023/05/12 08:04:58;;;;;;;0.30;0.30;;;13.20;98.00;;;;;;5061436;28;20029;-80
2023/05/12 08:07:24;;;;;;;0.00;0.00;;;13.20;97.90;;;;;;5056588;28;20112;-80
2023/05/12 08:09:50;;;;;;;0.20;0.20;;;13.00;98.20;;;;;;5062146;28;20029;-80
2023/05/12 08:12:15;;;;;;;0.32;0.32;;;13.10;98.20;;;;;;5057643;28;20021;-80
2023/05/12 08:14:41;;;;;;;5.77;0.97;;;13.20;98.10;;;;;;5057667;28;20490;-80
2023/05/12 08:17:07;;;;;;;0.30;0.30;;;13.20;98.00;;;;;;5062375;28;20082;-80
2023/05/12 08:19:32;;;;;;;1.83;0.53;;;13.40;98.10;;;;;;5061456;28;20078;-80
2023/05/12 08:21:58;;;;;;;2.13;0.83;;;13.40;97.80;;;;;;5058192;28;20032;-80
2023/05/12 08:24:24;;;;;;;0.00;0.00;;;13.70;97.20;;;;;;5060550;28;20542;-79
2023/05/12 08:26:49;;;;;;;0.10;0.10;;;14.10;96.90;;;;;;5054284;28;20245;-79
2023/05/12 08:29:15;;;;;;;0.73;0.60;;;14.30;96.20;;;;;;5057545;28;20024;-80
2023/05/12 08:31:41;;;;;;;0.07;0.07;;;14.30;96.30;;;;;;5060544;28;20478;-80
2023/05/12 08:34:07;;;;;;;0.47;0.17;;;14.60;96.30;;;;;;5059433;28;20099;-80
2023/05/12 08:36:33;;;;;;;0.00;0.00;;;14.90;96.00;;;;;;5062511;28;20710;-80
2023/05/12 08:38:58;;;;;;;0.20;0.20;;;14.80;95.70;;;;;;5055962;28;20540;-80
2023/05/12 08:41:33;;;;;;;0.03;0.03;;;14.90;95.50;;;;;;5059464;28;20024;-80
2023/05/12 08:44:00;;;;;;;0.10;0.10;;;17.30;92.60;;;;;;5054902;28;20029;-80
2023/05/12 08:46:25;;;;;;;0.50;0.50;;;17.90;89.70;;;;;;5056986;28;20052;-80
2023/05/12 08:48:54;;;;;;;0.10;0.10;;;16.80;90.90;;;;;;5052613;28;20571;-80
2023/05/12 08:51:21;;;;;;;0.15;0.15;;;16.30;91.40;;;;;;5055426;28;20080;-80
2023/05/12 08:53:49;;;;;;;0.00;0.00;;;15.60;92.70;;;;;;5056006;28;20021;-80
2023/05/12 08:56:18;;;;;;;0.10;0.10;;;15.10;93.20;;;;;;5037894;28;20057;-80
2023/05/12 08:58:45;;;;;;;0.08;0.08;;;14.50;93.50;;;;;;5053933;28;20037;-80
2023/05/12 09:01:13;;;;;;;0.10;0.10;;;14.50;94.70;;;;;;5061499;28;20032;-80
2023/05/12 09:03:39;;;;;;;0.52;0.50;;;14.60;94.50;;;;;;5056823;28;20036;-80
2023/05/12 09:06:05;;;;;;;0.10;0.10;;;14.80;94.50;;;;;;5061930;28;20055;-80
2023/05/12 09:08:32;;;;;;;0.00;0.00;;;15.60;93.90;;;;;;5037981;28;20029;-80
2023/05/12 09:10:59;;;;;;;0.10;0.10;;;16.60;92.00;;;;;;5061277;28;20031;-80
2023/05/12 09:13:46;;;;;;;0.00;0.00;;;17.80;90.20;;;;;;5055490;28;20025;-80
2023/05/12 09:16:13;;;;;;;0.13;0.13;;;17.50;90.10;;;;;;5058407;28;20029;-80
2023/05/12 09:18:54;;;;;;;0.10;0.10;;;16.90;90.10;;;;;;5038629;28;20574;-80
2023/05/12 09:21:20;;;;;;;0.00;0.00;;;15.60;92.40;;;;;;5053590;28;20032;-80
2023/05/12 09:23:59;;;;;;;0.32;0.32;;;15.10;92.50;;;;;;5064359;28;20077;-80
2023/05/12 09:26:26;;;;;;;0.00;0.00;;;15.30;92.90;;;;;;5062681;28;20496;-80
2023/05/12 09:28:53;;;;;;;0.00;0.00;;;15.10;92.90;;;;;;5062047;28;20070;-80
2023/05/12 09:31:21;;;;;;;0.00;0.00;;;14.80;92.30;;;;;;5042046;28;20025;-79
2023/05/12 09:33:48;;;;;;;0.10;0.10;;;14.20;94.80;;;;;;5062799;28;20106;-80
2023/05/12 09:36:18;;;;;;;0.10;0.10;;;14.10;95.40;;;;;;5062392;28;20062;-79
2023/05/12 09:38:44;;;;;;;0.20;0.20;;;14.20;95.60;;;;;;5061642;28;20083;-80
2023/05/12 09:41:09;;;;;;;0.00;0.00;;;14.50;95.20;;;;;;5059673;28;20131;-79
2023/05/12 09:43:36;;;;;;;0.33;0.33;;;14.80;94.10;;;;;;5061672;28;20785;-80
2023/05/12 09:46:05;;;;;;;0.08;0.08;;;15.40;93.30;;;;;;5058651;28;20025;-80
2023/05/12 09:48:31;;;;;;;0.00;0.00;;;15.70;93.00;;;;;;5060225;28;20028;-80
2023/05/12 09:50:57;;;;;;;0.20;0.20;;;15.50;92.30;;;;;;5059593;28;20036;-79
2023/05/12 09:53:23;;;;;;;0.25;0.25;;;14.90;93.50;;;;;;5060013;28;20135;-80
2023/05/12 09:55:49;;;;;;;0.13;0.13;;;14.40;94.10;;;;;;5069059;28;20533;-80
2023/05/12 09:58:19;;;;;;;0.00;0.00;;;13.80;95.20;;;;;;5059396;28;20040;-79
2023/05/12 10:00:46;;;;;;;0.00;0.00;;;13.40;95.40;;;;;;5061583;28;20069;-80
2023/05/12 10:03:16;;;;;;;0.00;0.00;;;13.30;95.90;;;;;;5062818;28;20021;-80
2023/05/12 10:05:52;;;;;;;0.13;0.13;;;13.60;95.10;;;;;;5060783;28;20056;-80
2023/05/12 10:08:23;;;;;;;0.52;0.52;;;14.00;93.80;;;;;;5062981;28;20107;-79
2023/05/12 10:10:51;;;;;;;0.10;0.10;;;13.80;94.70;;;;;;5057287;28;20037;-80
2023/05/12 10:13:17;;;;;;;0.28;0.28;;;13.70;94.20;;;;;;5057358;28;20036;-79
2023/05/12 10:15:45;;;;;;;0.08;0.08;;;14.00;94.20;;;;;;5059385;28;20029;-79
2023/05/12 10:18:11;;;;;;;0.10;0.10;;;14.50;93.30;;;;;;5053880;28;20043;-79
2023/05/12 10:20:39;;;;;;;0.00;0.00;;;15.10;91.80;;;;;;5062014;28;20507;-80
2023/05/12 10:23:06;;;;;;;0.00;0.00;;;15.30;89.00;;;;;;5063243;28;20028;-80
2023/05/12 10:25:32;;;;;;;0.00;0.00;;;16.80;84.10;;;;;;5063616;28;20064;-79
2023/05/12 10:28:00;;;;;;;0.00;0.00;;;17.50;83.80;;;;;;5055409;28;20028;-80
2023/05/12 10:30:26;;;;;;;0.00;0.00;;;17.70;81.50;;;;;;5057478;28;20031;-80
2023/05/12 10:32:52;;;;;;;0.00;0.00;;;16.60;78.50;;;;;;5055522;28;20016;-80
2023/05/12 10:35:18;;;;;;;0.10;0.10;;;16.20;80.40;;;;;;5064193;28;20040;-79
2023/05/12 10:37:46;;;;;;;0.00;0.00;;;16.10;77.70;;;;;;5058817;28;20321;-80
2023/05/12 10:40:23;;;;;;;0.00;0.00;;;16.90;77.20;;;;;;5056192;28;20436;-80
2023/05/12 10:42:49;;;;;;;;;;;17.80;78.10;;;;;;5058997;28;20571;-80
2023/05/12 10:45:18;;;;;;;0.00;0.00;;;18.10;75.20;;;;;;5055455;28;19940;-80
2023/05/12 10:47:47;;;;;;;0.00;0.00;;;16.80;76.30;;;;;;5064170;28;20032;-80
2023/05/12 10:50:13;;;;;;;0.00;0.00;;;16.90;74.80;;;;;;5057484;28;20053;-79
2023/05/12 10:52:40;;;;;;;0.00;0.00;;;16.70;76.00;;;;;;5055740;28;20074;-80
2023/05/12 10:55:13;;;;;;;0.00;0.00;;;16.70;75.10;;;;;;5056666;28;20037;-80
2023/05/12 10:57:49;;;;;;;3.85;1.00;;;16.50;77.50;;;;;;5056781;28;20098;-81
2023/05/12 11:00:15;;;;;;;;;;;16.00;77.30;;;;;;5058601;28;20078;-80
2023/05/12 11:02:49;;;;;;;0.00;0.00;;;15.60;79.80;;;;;;5063110;28;19916;-80
2023/05/12 11:05:15;;;;;;;0.00;0.00;;;15.80;79.30;;;;;;5057157;28;20040;-80
2023/05/12 11:07:47;;;;;;;0.37;0.20;;;15.40;79.50;;;;;;5060263;28;20017;-80
2023/05/12 11:10:13;;;;;;;0.00;0.00;;;14.80;88.30;;;;;;5069178;28;20028;-80
2023/05/12 11:12:41;;;;;;;0.00;0.00;;;14.40;95.70;;;;;;5058391;28;20030;-80
2023/05/12 11:15:07;;;;;;;0.82;0.75;;;14.50;95.70;;;;;;5054407;28;20039;-80
2023/05/12 11:17:32;;;;;;;0.00;0.00;;;15.10;94.20;;;;;;5057705;28;20020;-80
2023/05/12 11:19:59;;;;;;;1.20;0.27;;;15.00;90.30;;;;;;5056590;28;20039;-80
2023/05/12 11:22:25;;;;;;;;;;;15.20;90.20;;;;;;5054785;28;20484;-80
2023/05/12 11:24:51;;;;;;;0.00;0.00;;;15.70;89.40;;;;;;5061352;28;19908;-80
2023/05/12 11:27:18;;;;;;;0.00;0.00;;;16.20;87.50;;;;;;5061727;28;20032;-80
2023/05/12 11:29:54;;;;;;;0.05;0.05;;;16.00;81.60;;;;;;5058216;28;20566;-80
2023/05/12 11:32:20;;;;;;;0.20;0.20;;;16.20;80.60;;;;;;5056554;28;20055;-80
2023/05/12 11:34:46;;;;;;;0.00;0.00;;;16.30;81.70;;;;;;5060347;28;20910;-80
2023/05/12 11:37:12;;;;;;;0.00;0.00;;;16.10;79.30;;;;;;5059690;28;20048;-80
2023/05/12 11:39:38;;;;;;;0.10;0.10;;;16.00;81.20;;;;;;5041048;28;20124;-80
2023/05/12 11:42:09;;;;;;;0.10;0.10;;;15.60;81.90;;;;;;5038148;28;20522;-79
2023/05/12 11:44:35;;;;;;;0.00;0.00;;;15.30;82.20;;;;;;5057029;28;20021;-79
2023/05/12 11:47:10;;;;;;;0.08;0.08;;;15.00;84.70;;;;;;5061404;28;20028;-79
2023/05/12 11:49:54;;;;;;;0.10;0.10;;;15.10;81.90;;;;;;5053738;28;20057;-79
2023/05/12 11:52:21;;;;;;;0.40;0.20;;;15.20;84.40;;;;;;5035440;28;20162;-79
2023/05/12 11:55:04;;;;;;;0.00;0.00;;;15.10;82.80;;;;;;5058219;28;20089;-79
2023/05/12 11:57:32;;;;;;;0.10;0.10;;;14.70;82.50;;;;;;5058574;28;20025;-79
2023/05/12 11:59:59;;;;;;;0.10;0.10;;;14.60;84.00;;;;;;5058554;28;20037;-79
2023/05/12 12:02:25;;;;;;;0.00;0.00;;;14.80;85.80;;;;;;5058967;28;20024;-80
2023/05/12 12:04:50;;;;;;;0.00;0.00;;;14.80;84.50;;;;;;5060666;28;20032;-80
2023/05/12 12:07:35;;;;;;;0.80;0.40;;;14.50;85.80;;;;;;5054349;28;20032;-80
2023/05/12 12:10:15;;;;;;;0.05;0.05;;;14.50;86.70;;;;;;5053927;28;20083;-80
2023/05/12 12:12:42;;;;;;;0.00;0.00;;;14.10;87.90;;;;;;5039596;28;20024;-79
2023/05/12 12:15:09;;;;;;;0.20;0.20;;;14.10;89.60;;;;;;5052303;28;20021;-80
2023/05/12 12:17:34;;;;;;;0.10;0.10;;;14.40;88.60;;;;;;5058085;28;20029;-80
2023/05/12 12:20:00;;;;;;;0.00;0.00;;;14.80;88.00;;;;;;5059435;28;20089;-80
2023/05/12 12:22:26;;;;;;;0.10;0.10;;;15.30;86.80;;;;;;5062360;28;20032;-80
2023/05/12 12:24:52;;;;;;;0.73;0.30;;;15.30;84.70;;;;;;5061181;28;20039;-80
2023/05/12 12:27:18;;;;;;;0.00;0.00;;;15.80;86.70;;;;;;5061921;28;20064;-80
2023/05/12 12:29:43;;;;;;;0.00;0.00;;;16.00;85.70;;;;;;5058380;28;20143;-80
2023/05/12 12:32:09;;;;;;;0.10;0.10;;;16.20;84.40;;;;;;5060908;28;20107;-80
2023/05/12 12:34:35;;;;;;;0.03;0.03;;;16.60;82.60;;;;;;5058216;28;20036;-80
2023/05/12 12:37:01;;;;;;;0.00;0.00;;;16.40;85.10;;;;;;5059906;28;20854;-80
2023/05/12 12:39:26;;;;;;;0.10;0.10;;;16.00;84.00;;;;;;5059482;28;20044;-80
2023/05/12 12:41:52;;;;;;;0.00;0.00;;;16.00;84.10;;;;;;5058775;28;20032;-81
2023/05/12 12:44:18;;;;;;;0.00;0.00;;;16.40;83.20;;;;;;5055407;28;20029;-80
2023/05/12 12:46:44;;;;;;;0.00;0.00;;;16.40;83.70;;;;;;5061687;28;20269;-80